WetterOnline ( https://www.wetteronline.de )

Wetter aktuell Fichtelberg

Aktuelles Wetter: Fichtelberg (1215m)

6-stündlich | Neueste Meldungen
Ortszeit Temperatur Wetter
So, 22.05. 14:00 11.9° C wolkig
So, 22.05. 8:00 6.2° C Nebel
So, 22.05. 2:00 5.2° C wolkig
Sa, 21.05. 20:00 8.2° C bewölkt
Sa, 21.05. 14:00 9.9° C bewölkt
Sa, 21.05. 8:00 6.2° C bewölkt
Sa, 21.05. 2:00 12.0° C bewölkt
Fr, 20.05. 20:00 16.6° C leichter Regen
Ortszeit Temperatur Wetter
So, 22.05. 14:00 11.9° C wolkig
So, 22.05. 13:50 11.9° C wolkig
So, 22.05. 13:40 11.3° C bewölkt
So, 22.05. 13:30 11.7° C wolkig
So, 22.05. 13:20 11.7° C wolkig
So, 22.05. 13:10 11.5° C wolkig
So, 22.05. 13:00 12.0° C leicht bewölkt
So, 22.05. 12:30 11.3° C leicht bewölkt
So, 22.05. 12:00 10.9° C bewölkt
So, 22.05. 11:30 10.7° C wolkig
So, 22.05. 11:00 10.1° C wolkig
Ortszeit Relative Feuchte Sichtweite
So, 22.05. 14:00 54% 40 km
So, 22.05. 8:00 97% 8 km
So, 22.05. 2:00 92% 25 km
Sa, 21.05. 20:00 69% 55 km
Sa, 21.05. 14:00 63% >70 km
Sa, 21.05. 8:00 85% 35 km
Sa, 21.05. 2:00 94% 30 km
Fr, 20.05. 20:00 84% 40 km
Ortszeit Relative Feuchte Sichtweite
So, 22.05. 14:00 54% 40 km
So, 22.05. 13:50 54% -
So, 22.05. 13:40 60% -
So, 22.05. 13:30 59% 45 km
So, 22.05. 13:20 59% -
So, 22.05. 13:10 61% -
So, 22.05. 13:00 59% 55 km
So, 22.05. 12:30 65% 65 km
So, 22.05. 12:00 68% 35 km
So, 22.05. 11:30 64% 45 km
So, 22.05. 11:00 64% 45 km
Ortszeit Niederschlagsmenge Niederschlagsart
So, 22.05. 14:00 0.0 l/m2 in 6 Std. -
So, 22.05. 8:00 0.0 l/m2 in 12 Std. -
So, 22.05. 2:00 0.0 l/m2 in 6 Std. -
Sa, 21.05. 20:00 0.0 l/m2 in 12 Std. -
Sa, 21.05. 14:00 0.0 l/m2 in 6 Std. -
Sa, 21.05. 8:00 0.1 l/m2 in 12 Std. -
Sa, 21.05. 2:00 0.1 l/m2 in 6 Std. Regen
Fr, 20.05. 20:00 1 l/m2 in 12 Std. Regen
Ortszeit Niederschlagsmenge Niederschlagsart
So, 22.05. 14:00 0.0 l/m2 in 1 Std. -
So, 22.05. 13:50 keine Meldung -
So, 22.05. 13:40 keine Meldung -
So, 22.05. 13:30 0.0 l/m2 in 1 Std. -
So, 22.05. 13:20 keine Meldung -
So, 22.05. 13:10 keine Meldung -
So, 22.05. 13:00 0.0 l/m2 in 1 Std. -
So, 22.05. 12:30 0.0 l/m2 in 1 Std. -
So, 22.05. 12:00 0.0 l/m2 in 1 Std. -
So, 22.05. 11:30 0.0 l/m2 in 1 Std. -
So, 22.05. 11:00 0.0 l/m2 in 1 Std. -
Ortszeit Stärke Spitze Richtung
km/h Bft. km/h Grad Sektor
So, 22.05. 14:00 14 3 40 320° NW
So, 22.05. 8:00 22 4 41 300° NW
So, 22.05. 2:00 31 5 50 310° NW
Sa, 21.05. 20:00 35 5 65 300° NW
Sa, 21.05. 14:00 40 6 65 280° W
Sa, 21.05. 8:00 46 6 85 290° W
Sa, 21.05. 2:00 58 7 90 290° W
Fr, 20.05. 20:00 31 5 56 250° W
Ortszeit Stärke Spitze Richtung
km/h Bft. km/h Grad Sektor
So, 22.05. 14:00 14 3 32 320° NW
So, 22.05. 13:50 14 3 - 320° NW
So, 22.05. 13:40 18 3 - 320° NW
So, 22.05. 13:30 13 3 30 280° W
So, 22.05. 13:20 13 3 - 280° W
So, 22.05. 13:10 18 3 - 320° NW
So, 22.05. 13:00 19 3 33 310° NW
So, 22.05. 12:30 24 4 33 310° NW
So, 22.05. 12:00 22 4 40 320° NW
So, 22.05. 11:30 24 4 35 310° NW
So, 22.05. 11:00 25 4 40 310° NW
Ortszeit Untergrenze Bedeckung Gattung
total tief tief mittel hoch
So, 22.05. 14:00 1020 m 7/8 3/8 - - -
So, 22.05. 8:00 <30 m 7/8 0/8 - - -
So, 22.05. 2:00 510 m 7/8 3/8 - - -
Sa, 21.05. 20:00 1080 m 7/8 7/8 - - -
Sa, 21.05. 14:00 840 m 7/8 7/8 - - -
Sa, 21.05. 8:00 240 m 7/8 7/8 - - -
Sa, 21.05. 2:00 90 m 7/8 7/8 - - -
Fr, 20.05. 20:00 1050 m 8/8 2/8 - - -
Ortszeit Bedeckungsgrad in Achtel und Wolkenuntergrenze
So, 22.05. 14:00 3(1020m) 7(9000m)
So, 22.05. 13:50 3(1020m) 7(9000m)
So, 22.05. 13:40 7
So, 22.05. 13:30 1(750m) 3(960m) 7(9000m)
So, 22.05. 13:20 1(750m) 3(960m) 7(9000m)
So, 22.05. 13:10 5
So, 22.05. 13:00 2(810m) 3(9000m)
So, 22.05. 12:30 3(750m)
So, 22.05. 12:00 7(720m) 7(900m)
So, 22.05. 11:30 1(600m) 4(840m) 5(6000m)
So, 22.05. 11:00 4(660m) 7(6300m) 7(7500m)
Ortszeit Stationsdruck (hPa) Tendenz (hPa in 3 Std.)
So, 22.05. 14:00 879 - 0,4
So, 22.05. 8:00 880 - 0,3
So, 22.05. 2:00 881 - 1,2
Sa, 21.05. 20:00 882 - 0,3
Sa, 21.05. 14:00 882 + 0,3
Sa, 21.05. 8:00 881 + 0,9
Sa, 21.05. 2:00 878 + 0,1
Fr, 20.05. 20:00 881 - 2,1
Ortszeit Stationsdruck (hPa) Tendenz (hPa in 3 Std.)
So, 22.05. 14:00 879 - 0,4
So, 22.05. 13:50 879 keine Meldung
So, 22.05. 13:40 879 keine Meldung
So, 22.05. 13:30 879 - 0,3
So, 22.05. 13:20 879 keine Meldung
So, 22.05. 13:10 879 keine Meldung
So, 22.05. 13:00 880 0,0
So, 22.05. 12:30 880 - 0,1
So, 22.05. 12:00 880 - 0,2
So, 22.05. 11:30 880 - 0,1
So, 22.05. 11:00 880 - 0,2
Ortszeit Schneehöhe (cm)
So, 22.05. 14:00 0
So, 22.05. 8:00 0
So, 22.05. 2:00 0
Sa, 21.05. 20:00 0
Sa, 21.05. 14:00 0
Sa, 21.05. 8:00 0
Sa, 21.05. 2:00 0
Fr, 20.05. 20:00 0
Ortszeit Schneehöhe (cm)
So, 22.05. 14:00 0
So, 22.05. 13:50 0
So, 22.05. 13:40 0
So, 22.05. 13:30 0
So, 22.05. 13:20 0
So, 22.05. 13:10 0
So, 22.05. 13:00 0
So, 22.05. 12:30 0
So, 22.05. 12:00 0
So, 22.05. 11:30 0
So, 22.05. 11:00 0
Link zu dieser Seite / Seite empfehlen

Das Wetter in ...